createdAt,value
2018-07-04T00:09:18.025Z,19.08
2018-07-04T00:19:16.149Z,19.23
2018-07-04T00:29:09.317Z,18.89
2018-07-04T00:39:07.593Z,18.68
2018-07-04T00:49:02.636Z,18.47
2018-07-04T00:58:58.159Z,18.27
2018-07-04T01:08:53.231Z,18.11
2018-07-04T01:18:50.233Z,17.95
2018-07-04T01:28:49.998Z,17.87
2018-07-04T01:38:46.021Z,17.67
2018-07-04T01:48:44.150Z,17.54
2018-07-04T01:58:40.294Z,17.54
2018-07-04T02:08:37.433Z,17.46
2018-07-04T02:18:35.542Z,17.33
2018-07-04T02:28:29.646Z,17.25
2018-07-04T02:38:28.198Z,17.18
2018-07-04T02:48:24.120Z,17.08
2018-07-04T02:58:22.213Z,17.00
2018-07-04T03:08:20.484Z,16.92
2018-07-04T03:18:14.915Z,16.81
2018-07-04T03:28:13.699Z,16.77
2018-07-04T03:38:12.748Z,16.74
2018-07-04T03:48:11.096Z,16.78
2018-07-04T03:58:09.210Z,16.85
2018-07-04T04:08:06.307Z,16.98
2018-07-04T04:18:04.322Z,17.11
2018-07-04T04:27:56.921Z,17.29
2018-07-04T04:37:56.027Z,17.63
2018-07-04T04:47:54.301Z,18.02
2018-07-04T04:57:45.956Z,18.34
2018-07-04T05:07:41.085Z,18.80
2018-07-04T05:17:40.072Z,19.18
2018-07-04T05:27:38.328Z,19.51
2018-07-04T05:37:34.816Z,19.65
2018-07-04T05:47:27.799Z,19.93
2018-07-04T05:57:24.815Z,19.83
2018-07-04T06:07:24.509Z,20.13
2018-07-04T06:17:22.209Z,20.23
2018-07-04T06:27:17.995Z,20.40
2018-07-04T06:37:17.175Z,20.54
2018-07-04T06:47:16.876Z,20.79
2018-07-04T06:57:15.794Z,21.76
2018-07-04T07:07:14.548Z,22.02
2018-07-04T07:17:13.210Z,22.05
2018-07-04T07:27:10.408Z,22.10
2018-07-04T07:37:07.623Z,22.28
2018-07-04T07:47:04.950Z,22.57
2018-07-04T07:57:03.933Z,23.05
2018-07-04T08:06:59.930Z,23.46
2018-07-04T08:16:55.211Z,23.65
2018-07-04T08:26:52.110Z,24.01
2018-07-04T08:36:50.068Z,24.38
2018-07-04T08:46:47.450Z,24.75
2018-07-04T08:56:43.518Z,25.05
2018-07-04T09:06:42.504Z,25.32
2018-07-04T09:16:38.811Z,25.60
2018-07-04T09:26:35.757Z,26.12
2018-07-04T09:36:33.781Z,26.30
2018-07-04T09:46:17.623Z,26.34
2018-07-04T09:55:51.264Z,26.47
2018-07-04T10:05:24.505Z,26.67
2018-07-04T10:14:57.406Z,26.62
2018-07-04T10:24:45.909Z,26.64
2018-07-04T10:34:43.324Z,26.75
2018-07-04T10:44:21.685Z,27.16
2018-07-04T10:54:00.365Z,27.89
2018-07-04T11:03:38.765Z,27.98
2018-07-04T11:13:18.508Z,28.50
2018-07-04T11:22:55.944Z,28.38
2018-07-04T11:32:50.878Z,28.10
2018-07-04T11:42:26.249Z,28.80
2018-07-04T11:52:08.449Z,28.93
2018-07-04T12:01:41.456Z,29.13
2018-07-04T12:11:15.051Z,29.55
2018-07-04T12:20:49.206Z,29.99
2018-07-04T12:30:24.264Z,30.99
2018-07-04T12:39:58.608Z,29.84
2018-07-04T12:49:31.362Z,29.75
2018-07-04T12:59:00.391Z,30.44
2018-07-04T13:08:38.360Z,29.44
2018-07-04T13:18:18.842Z,28.81
2018-07-04T13:27:52.352Z,28.96
2018-07-04T13:37:21.889Z,30.81
2018-07-04T13:47:03.172Z,31.31
2018-07-04T13:56:41.423Z,30.75
2018-07-04T14:06:17.546Z,30.43
2018-07-04T14:15:54.599Z,30.68
2018-07-04T14:25:33.391Z,31.20
2018-07-04T14:35:19.531Z,30.74
2018-07-04T14:44:50.386Z,33.36
2018-07-04T14:54:30.756Z,33.60
2018-07-04T15:04:08.447Z,31.80
2018-07-04T15:13:41.508Z,31.27
2018-07-04T15:23:14.117Z,30.21
2018-07-04T15:32:51.267Z,30.10
2018-07-04T15:42:31.679Z,30.18
2018-07-04T15:52:11.605Z,29.84
2018-07-04T16:01:44.303Z,28.54
2018-07-04T16:11:19.839Z,28.32
2018-07-04T16:20:55.537Z,28.17
2018-07-04T16:30:50.207Z,27.21
2018-07-04T16:40:46.860Z,27.04
2018-07-04T16:50:44.360Z,27.12
2018-07-04T17:00:41.156Z,27.01
2018-07-04T17:10:35.298Z,26.65
2018-07-04T17:20:27.426Z,26.40
2018-07-04T17:30:23.116Z,25.78
2018-07-04T17:40:02.466Z,26.09
2018-07-04T17:50:00.069Z,26.05
2018-07-04T17:59:54.470Z,25.46
2018-07-04T18:09:33.591Z,25.16
2018-07-04T18:19:22.789Z,24.40
2018-07-04T18:29:19.999Z,24.08
2018-07-04T18:39:18.681Z,23.90
2018-07-04T18:49:10.876Z,23.50
2018-07-04T18:59:02.607Z,23.02
2018-07-04T19:08:56.810Z,22.63
2018-07-04T19:18:54.866Z,22.15
2018-07-04T19:28:51.559Z,21.92
2018-07-04T19:38:44.760Z,21.59
2018-07-04T19:48:41.038Z,21.31
2018-07-04T19:58:27.852Z,21.04
2018-07-04T20:08:12.170Z,20.90
2018-07-04T20:18:06.316Z,20.93
2018-07-04T20:27:48.792Z,20.79
2018-07-04T20:37:29.613Z,20.54
2018-07-04T20:47:19.062Z,20.51
2018-07-04T20:57:02.290Z,20.40
2018-07-04T21:06:43.108Z,20.31
2018-07-04T21:16:34.662Z,20.31
2018-07-04T21:26:28.708Z,20.15
2018-07-04T21:36:25.125Z,20.06
2018-07-04T21:46:10.464Z,19.95
2018-07-04T21:55:57.841Z,19.83
2018-07-04T22:05:40.787Z,19.63
2018-07-04T22:15:21.531Z,19.48
2018-07-04T22:25:07.872Z,19.36
2018-07-04T22:34:51.807Z,19.45
2018-07-04T22:44:35.950Z,19.13
2018-07-04T22:54:18.717Z,18.92
2018-07-04T23:04:00.840Z,18.82
2018-07-04T23:13:41.352Z,18.71
2018-07-04T23:23:27.211Z,18.61
2018-07-04T23:33:21.921Z,18.50
2018-07-04T23:43:05.592Z,18.37
2018-07-04T23:52:49.677Z,18.35
